createdAt,value
2023-05-05T00:01:37.138Z,17.06
2023-05-05T00:04:03.939Z,17.12
2023-05-05T00:06:31.299Z,17.10
2023-05-05T00:08:57.878Z,17.27
2023-05-05T00:11:25.965Z,17.15
2023-05-05T00:13:53.787Z,17.33
2023-05-05T00:16:20.663Z,16.80
2023-05-05T00:18:47.295Z,16.65
2023-05-05T00:21:14.109Z,16.64
2023-05-05T00:23:40.985Z,16.66
2023-05-05T00:26:07.874Z,16.90
2023-05-05T00:28:34.886Z,16.78
2023-05-05T00:31:01.577Z,16.81
2023-05-05T00:33:28.746Z,16.78
2023-05-05T00:35:55.312Z,16.80
2023-05-05T00:38:21.842Z,16.51
2023-05-05T00:40:48.345Z,16.55
2023-05-05T00:43:16.215Z,16.82
2023-05-05T00:45:47.835Z,16.53
2023-05-05T00:48:15.264Z,16.58
2023-05-05T00:50:43.935Z,16.69
2023-05-05T00:53:12.315Z,16.58
2023-05-05T00:55:38.915Z,16.44
2023-05-05T00:58:05.500Z,16.35
2023-05-05T01:00:32.369Z,16.39
2023-05-05T01:02:59.574Z,16.53
2023-05-05T01:05:29.712Z,16.38
2023-05-05T01:08:10.001Z,16.42
2023-05-05T01:10:52.810Z,16.60
2023-05-05T01:13:37.257Z,16.41
2023-05-05T01:16:20.607Z,16.34
2023-05-05T01:19:08.706Z,16.30
2023-05-05T01:21:41.568Z,16.18
2023-05-05T01:24:22.129Z,16.21
2023-05-05T01:27:36.054Z,16.37
2023-05-05T01:30:37.996Z,16.56
2023-05-05T01:33:08.546Z,16.07
2023-05-05T01:35:47.314Z,16.14
2023-05-05T01:38:24.791Z,16.33
2023-05-05T01:41:21.950Z,16.38
2023-05-05T01:43:50.853Z,16.16
2023-05-05T01:46:19.549Z,15.81
2023-05-05T01:48:47.644Z,16.16
2023-05-05T01:51:17.720Z,16.18
2023-05-05T01:53:47.177Z,16.09
2023-05-05T01:56:15.830Z,15.73
2023-05-05T01:58:45.581Z,16.01
2023-05-05T02:01:13.177Z,15.87
2023-05-05T02:03:40.613Z,15.64
2023-05-05T02:06:08.530Z,15.80
2023-05-05T02:08:37.610Z,15.56
2023-05-05T02:11:08.248Z,15.70
2023-05-05T02:13:36.571Z,15.67
2023-05-05T02:16:06.162Z,15.66
2023-05-05T02:18:35.901Z,15.43
2023-05-05T02:21:04.353Z,15.58
2023-05-05T02:23:31.239Z,15.46
2023-05-05T02:26:04.768Z,15.46
2023-05-05T02:28:57.882Z,15.45
2023-05-05T02:31:27.577Z,15.43
2023-05-05T02:33:56.450Z,15.33
2023-05-05T02:36:27.767Z,15.18
2023-05-05T02:39:01.139Z,15.69
2023-05-05T02:41:29.349Z,15.33
2023-05-05T02:43:58.342Z,15.18
2023-05-05T02:46:25.459Z,15.56
2023-05-05T02:48:52.342Z,15.22
2023-05-05T02:51:18.863Z,15.23
2023-05-05T02:53:45.797Z,15.17
2023-05-05T02:56:28.246Z,15.27
2023-05-05T02:59:04.386Z,15.02
2023-05-05T03:01:57.208Z,14.92
2023-05-05T03:04:34.819Z,14.66
2023-05-05T03:07:10.998Z,15.02
2023-05-05T03:09:41.806Z,15.09
2023-05-05T03:12:11.175Z,14.76
2023-05-05T03:14:42.653Z,15.17
2023-05-05T03:17:12.173Z,15.19
2023-05-05T03:19:42.490Z,15.07
2023-05-05T03:22:09.560Z,15.06
2023-05-05T03:24:36.180Z,14.85
2023-05-05T03:27:03.124Z,14.84
2023-05-05T03:29:30.232Z,14.97
2023-05-05T03:32:00.394Z,15.02
2023-05-05T03:34:27.966Z,15.09
2023-05-05T03:36:54.576Z,14.86
2023-05-05T03:39:21.420Z,14.88
2023-05-05T03:41:48.150Z,15.03
2023-05-05T03:44:14.789Z,14.85
2023-05-05T03:46:42.416Z,14.66
2023-05-05T03:49:10.150Z,15.17
2023-05-05T03:51:37.483Z,15.22
2023-05-05T03:54:05.116Z,15.14
2023-05-05T03:56:31.995Z,15.05
2023-05-05T03:58:58.628Z,14.95
2023-05-05T04:01:25.653Z,14.60
2023-05-05T04:03:52.504Z,15.15
2023-05-05T04:06:19.344Z,15.09
2023-05-05T04:08:46.296Z,14.97
2023-05-05T04:11:13.376Z,15.09
2023-05-05T04:13:39.923Z,15.19
2023-05-05T04:16:06.835Z,15.12
2023-05-05T04:18:33.386Z,14.93
2023-05-05T04:21:00.045Z,15.11
2023-05-05T04:23:27.950Z,15.10
2023-05-05T04:25:54.598Z,15.08
2023-05-05T04:28:22.011Z,15.03
2023-05-05T04:30:49.151Z,14.84
2023-05-05T04:33:15.787Z,15.30
2023-05-05T04:35:42.773Z,15.03
2023-05-05T04:38:09.315Z,14.94
2023-05-05T04:40:40.268Z,15.04
2023-05-05T04:43:07.650Z,15.27
2023-05-05T04:45:34.332Z,15.13
2023-05-05T04:48:01.632Z,15.03
2023-05-05T04:50:28.295Z,15.16
2023-05-05T04:52:56.275Z,15.34
2023-05-05T04:55:23.024Z,15.73
2023-05-05T04:57:49.629Z,15.72
2023-05-05T05:00:16.968Z,15.68
2023-05-05T05:02:43.850Z,15.55
2023-05-05T05:05:10.905Z,15.28
2023-05-05T05:07:37.533Z,15.60
2023-05-05T05:10:04.498Z,16.28
2023-05-05T05:12:31.419Z,16.59
2023-05-05T05:14:58.231Z,15.88
2023-05-05T05:17:25.003Z,16.91
2023-05-05T05:19:51.792Z,16.74
2023-05-05T05:22:19.342Z,16.67
2023-05-05T05:24:45.944Z,16.59
2023-05-05T05:27:12.776Z,16.83
2023-05-05T05:29:39.528Z,16.86
2023-05-05T05:32:06.164Z,18.07
2023-05-05T05:34:33.762Z,17.69
2023-05-05T05:37:00.587Z,18.35
2023-05-05T05:39:27.288Z,17.80
2023-05-05T05:41:54.037Z,17.85
2023-05-05T05:44:21.754Z,17.29
2023-05-05T05:46:48.239Z,18.16
2023-05-05T05:49:16.350Z,18.39
2023-05-05T05:51:42.940Z,18.35
2023-05-05T05:54:09.958Z,18.90
2023-05-05T05:56:37.391Z,18.92
2023-05-05T05:59:07.903Z,18.48
2023-05-05T06:01:35.975Z,19.14
2023-05-05T06:04:02.636Z,19.82
2023-05-05T06:06:29.307Z,20.03
2023-05-05T06:08:56.109Z,19.81
2023-05-05T06:11:22.649Z,19.97
2023-05-05T06:13:49.774Z,20.63
2023-05-05T06:16:16.417Z,20.12
2023-05-05T06:18:43.421Z,21.13
2023-05-05T06:21:10.010Z,21.02
2023-05-05T06:23:36.525Z,21.60
2023-05-05T06:26:03.392Z,21.37
2023-05-05T06:28:30.027Z,21.52
2023-05-05T06:30:57.020Z,20.84
2023-05-05T06:33:23.661Z,20.89
2023-05-05T06:35:51.946Z,22.53
2023-05-05T06:38:18.585Z,22.80
2023-05-05T06:40:49.900Z,22.44
2023-05-05T06:43:18.479Z,22.08
2023-05-05T06:45:45.557Z,22.80
2023-05-05T06:48:13.309Z,22.70
2023-05-05T06:50:40.060Z,22.04
2023-05-05T06:53:07.339Z,22.08
2023-05-05T06:55:35.435Z,22.57
2023-05-05T06:58:02.288Z,22.75
2023-05-05T07:00:29.521Z,22.85
2023-05-05T07:02:56.390Z,21.92
2023-05-05T07:05:24.040Z,21.24
2023-05-05T07:07:54.921Z,22.53
2023-05-05T07:10:22.958Z,23.14
2023-05-05T07:12:50.659Z,23.08
2023-05-05T07:15:28.750Z,25.15
2023-05-05T07:17:56.846Z,25.01
2023-05-05T07:20:24.348Z,24.04
2023-05-05T07:22:52.640Z,24.09
2023-05-05T07:25:19.388Z,26.19
2023-05-05T07:27:46.339Z,25.67
2023-05-05T07:30:16.569Z,26.36
2023-05-05T07:32:46.968Z,28.14
2023-05-05T07:35:13.720Z,26.32
2023-05-05T07:37:40.421Z,29.29
2023-05-05T07:40:07.883Z,26.51
2023-05-05T07:42:34.955Z,25.77
2023-05-05T07:45:01.700Z,28.20
2023-05-05T07:47:28.310Z,27.46
2023-05-05T07:49:55.249Z,28.12
2023-05-05T07:52:33.217Z,27.40
2023-05-05T07:55:08.601Z,25.82
2023-05-05T07:57:35.163Z,26.49
2023-05-05T08:00:01.910Z,26.46
2023-05-05T08:02:28.773Z,27.04
2023-05-05T08:04:55.429Z,26.58
2023-05-05T08:07:22.104Z,27.43
2023-05-05T08:09:49.160Z,31.84
2023-05-05T08:12:17.909Z,28.06
2023-05-05T08:14:44.771Z,28.50
2023-05-05T08:17:11.966Z,27.25
2023-05-05T08:19:38.574Z,26.37
2023-05-05T08:22:05.424Z,25.00
2023-05-05T08:24:32.665Z,24.93
2023-05-05T08:26:59.828Z,25.35
2023-05-05T08:29:27.865Z,25.38
2023-05-05T08:31:55.362Z,24.90
2023-05-05T08:34:21.993Z,24.51
2023-05-05T08:36:50.790Z,24.59
2023-05-05T08:39:17.451Z,25.32
2023-05-05T08:41:44.195Z,25.10
2023-05-05T08:44:10.963Z,25.37
2023-05-05T08:46:39.530Z,25.31
2023-05-05T08:49:07.829Z,26.35
2023-05-05T08:51:41.820Z,25.51
2023-05-05T08:54:19.340Z,25.58
2023-05-05T08:56:49.470Z,25.10
2023-05-05T08:59:17.284Z,25.30
2023-05-05T09:01:45.074Z,25.11
2023-05-05T09:04:11.856Z,25.39
2023-05-05T09:06:38.454Z,25.73
2023-05-05T09:09:05.031Z,25.76
2023-05-05T09:11:34.334Z,26.32
2023-05-05T09:14:02.028Z,26.83
2023-05-05T09:16:28.593Z,26.00
2023-05-05T09:19:03.453Z,25.61
2023-05-05T09:21:30.901Z,26.70
2023-05-05T09:24:09.049Z,27.84
2023-05-05T09:26:46.837Z,26.18
2023-05-05T09:29:19.588Z,29.81
2023-05-05T09:32:05.685Z,29.46
2023-05-05T09:34:36.205Z,28.50
2023-05-05T09:37:03.296Z,28.95
2023-05-05T09:39:30.091Z,27.46
2023-05-05T09:41:57.353Z,29.38
2023-05-05T09:44:36.655Z,29.79
2023-05-05T09:47:07.361Z,29.17
2023-05-05T09:49:38.026Z,32.69
2023-05-05T09:52:15.523Z,35.41
2023-05-05T09:54:44.107Z,37.87
2023-05-05T09:57:29.289Z,36.72
2023-05-05T10:00:01.177Z,34.66
2023-05-05T10:02:38.457Z,33.38
2023-05-05T10:05:08.794Z,33.24
2023-05-05T10:07:36.161Z,29.93
2023-05-05T10:10:12.529Z,31.85
2023-05-05T10:12:40.604Z,33.30
2023-05-05T10:15:11.430Z,33.53
2023-05-05T10:18:05.286Z,31.14
2023-05-05T10:20:36.386Z,32.01
2023-05-05T10:23:08.217Z,32.06
2023-05-05T10:25:46.510Z,32.01
2023-05-05T10:28:20.316Z,31.38
2023-05-05T10:30:51.620Z,29.77
2023-05-05T10:35:53.846Z,31.85
2023-05-05T10:38:20.947Z,31.70
2023-05-05T10:40:48.795Z,31.33
2023-05-05T10:43:15.673Z,32.33
2023-05-05T10:45:45.427Z,32.86
2023-05-05T10:48:18.360Z,30.87
2023-05-05T10:50:51.217Z,32.44
2023-05-05T10:53:27.730Z,30.22
2023-05-05T10:56:33.471Z,29.84
2023-05-05T10:59:00.964Z,30.11
2023-05-05T11:01:35.443Z,30.52
2023-05-05T11:04:22.463Z,30.39
2023-05-05T11:07:22.100Z,30.54
2023-05-05T11:09:56.604Z,30.02
2023-05-05T11:12:23.240Z,31.98
2023-05-05T11:15:28.625Z,31.40
2023-05-05T11:17:56.821Z,30.96
2023-05-05T11:20:43.732Z,29.10
2023-05-05T11:23:10.367Z,29.77
2023-05-05T11:25:37.365Z,30.43
2023-05-05T11:28:05.649Z,29.95
2023-05-05T11:30:32.308Z,31.06
2023-05-05T11:33:31.180Z,30.01
2023-05-05T11:35:58.569Z,30.72
2023-05-05T11:38:41.327Z,30.86
2023-05-05T11:41:34.065Z,30.43
2023-05-05T11:44:16.669Z,30.58
2023-05-05T11:46:52.487Z,30.08
2023-05-05T11:49:36.609Z,30.77
2023-05-05T11:52:07.413Z,31.15
2023-05-05T11:54:36.967Z,31.04
2023-05-05T11:57:08.698Z,30.87
2023-05-05T11:59:37.340Z,30.96
2023-05-05T12:02:04.710Z,29.92
2023-05-05T12:04:31.982Z,30.10
2023-05-05T12:06:59.406Z,30.11
2023-05-05T12:09:28.189Z,31.43
2023-05-05T12:11:57.898Z,31.55
2023-05-05T12:14:25.814Z,30.27
2023-05-05T12:17:07.460Z,30.35
2023-05-05T12:19:44.293Z,31.80
2023-05-05T12:22:18.563Z,31.63
2023-05-05T12:24:45.150Z,31.42
2023-05-05T12:27:12.097Z,30.54
2023-05-05T12:29:39.413Z,31.36
2023-05-05T12:32:06.310Z,30.17
2023-05-05T12:34:33.347Z,30.78
2023-05-05T12:37:02.100Z,30.38
2023-05-05T12:39:36.502Z,31.73
2023-05-05T12:42:04.273Z,31.52
2023-05-05T12:44:39.551Z,30.29
2023-05-05T12:47:07.089Z,30.82
2023-05-05T12:49:52.224Z,29.98
2023-05-05T12:52:19.141Z,31.24
2023-05-05T12:54:59.667Z,31.76
2023-05-05T12:57:29.451Z,31.42
2023-05-05T12:59:57.897Z,30.47
2023-05-05T13:02:34.671Z,29.26
2023-05-05T13:05:01.437Z,29.44
2023-05-05T13:07:28.225Z,31.66
2023-05-05T13:10:11.773Z,31.33
2023-05-05T13:12:38.408Z,32.44
2023-05-05T13:15:08.150Z,32.00
2023-05-05T13:17:35.194Z,31.27
2023-05-05T13:20:02.108Z,32.03
2023-05-05T13:22:28.755Z,32.16
2023-05-05T13:24:55.303Z,33.38
2023-05-05T13:27:21.988Z,35.32
2023-05-05T13:29:49.323Z,33.18
2023-05-05T13:32:15.973Z,34.50
2023-05-05T13:34:43.540Z,34.25
2023-05-05T13:37:11.541Z,33.91
2023-05-05T13:39:38.226Z,32.73
2023-05-05T13:42:04.864Z,31.34
2023-05-05T13:44:31.431Z,31.05
2023-05-05T13:46:58.213Z,30.08
2023-05-05T13:49:24.810Z,30.48
2023-05-05T13:51:51.349Z,29.00
2023-05-05T13:54:17.923Z,30.33
2023-05-05T13:56:44.723Z,31.00
2023-05-05T13:59:11.663Z,30.37
2023-05-05T14:01:38.518Z,30.76
2023-05-05T14:04:06.377Z,31.51
2023-05-05T14:06:33.713Z,31.00
2023-05-05T14:09:00.626Z,30.31
2023-05-05T14:11:27.397Z,31.81
2023-05-05T14:13:54.065Z,31.28
2023-05-05T14:16:20.848Z,31.35
2023-05-05T14:18:47.516Z,29.27
2023-05-05T14:21:14.182Z,29.70
2023-05-05T14:23:41.144Z,29.92
2023-05-05T14:26:09.224Z,30.62
2023-05-05T14:28:37.201Z,30.95
2023-05-05T14:31:03.948Z,30.79
2023-05-05T14:33:31.047Z,30.81
2023-05-05T14:35:58.237Z,30.46
2023-05-05T14:38:27.595Z,30.24
2023-05-05T14:40:54.442Z,30.00
2023-05-05T14:43:22.095Z,29.64
2023-05-05T14:45:49.125Z,28.89
2023-05-05T14:48:16.057Z,28.46
2023-05-05T14:50:43.149Z,29.03
2023-05-05T14:53:09.748Z,29.50
2023-05-05T14:55:36.816Z,29.34
2023-05-05T14:58:03.521Z,29.18
2023-05-05T15:00:31.842Z,28.13
2023-05-05T15:02:58.748Z,28.89
2023-05-05T15:05:25.510Z,27.91
2023-05-05T15:07:52.192Z,27.71
2023-05-05T15:10:21.681Z,27.81
2023-05-05T15:12:51.054Z,27.82
2023-05-05T15:15:18.054Z,28.15
2023-05-05T15:17:45.303Z,28.06
2023-05-05T15:20:12.298Z,27.99
2023-05-05T15:22:39.027Z,27.83
2023-05-05T15:25:10.201Z,27.55
2023-05-05T15:27:38.161Z,27.32
2023-05-05T15:30:06.242Z,27.28
2023-05-05T15:32:32.903Z,27.22
2023-05-05T15:34:59.950Z,26.88
2023-05-05T15:37:28.873Z,26.00
2023-05-05T15:39:56.096Z,25.88
2023-05-05T15:42:23.760Z,25.06
2023-05-05T15:44:52.440Z,25.12
2023-05-05T15:47:19.833Z,24.73
2023-05-05T15:49:47.750Z,24.89
2023-05-05T15:52:14.887Z,24.56
2023-05-05T15:54:42.042Z,24.39
2023-05-05T15:57:08.969Z,24.30
2023-05-05T15:59:36.031Z,24.11
2023-05-05T16:02:03.131Z,23.67
2023-05-05T16:04:30.579Z,23.93
2023-05-05T16:06:58.161Z,24.10
2023-05-05T16:09:25.052Z,24.27
2023-05-05T16:11:54.792Z,23.66
2023-05-05T16:14:21.399Z,24.17
2023-05-05T16:16:48.312Z,23.57
2023-05-05T16:19:15.438Z,23.75
2023-05-05T16:21:42.184Z,23.61
2023-05-05T16:24:10.408Z,23.86
2023-05-05T16:26:37.136Z,23.93
2023-05-05T16:29:03.696Z,24.31
2023-05-05T16:31:34.343Z,23.94
2023-05-05T16:34:00.933Z,23.60
2023-05-05T16:36:28.779Z,24.06
2023-05-05T16:38:56.110Z,24.00
2023-05-05T16:41:24.656Z,23.96
2023-05-05T16:43:58.726Z,23.27
2023-05-05T16:46:25.308Z,23.81
2023-05-05T16:48:52.092Z,24.07
2023-05-05T16:51:19.148Z,23.80
2023-05-05T16:53:48.293Z,23.87
2023-05-05T16:56:16.726Z,23.77
2023-05-05T16:58:44.635Z,23.23
2023-05-05T17:01:12.450Z,23.59
2023-05-05T17:03:39.733Z,23.51
2023-05-05T17:06:06.460Z,23.15
2023-05-05T17:08:33.673Z,23.05
2023-05-05T17:11:00.421Z,22.97
2023-05-05T17:13:27.114Z,23.09
2023-05-05T17:15:53.769Z,22.70
2023-05-05T17:18:22.850Z,22.87
2023-05-05T17:20:50.280Z,22.61
2023-05-05T17:23:16.951Z,22.48
2023-05-05T17:25:43.995Z,22.63
2023-05-05T17:28:10.723Z,22.51
2023-05-05T17:30:37.640Z,22.53
2023-05-05T17:33:05.639Z,22.89
2023-05-05T17:35:33.423Z,22.63
2023-05-05T17:38:02.970Z,22.71
2023-05-05T17:40:29.694Z,22.70
2023-05-05T17:42:57.829Z,22.76
2023-05-05T17:45:24.507Z,22.72
2023-05-05T17:47:51.203Z,22.62
2023-05-05T17:50:18.119Z,22.76
2023-05-05T17:52:46.961Z,22.63
2023-05-05T17:55:13.665Z,22.70
2023-05-05T17:57:41.743Z,22.77
2023-05-05T18:00:08.980Z,22.63
2023-05-05T18:02:37.882Z,22.51
2023-05-05T18:05:14.070Z,22.51
2023-05-05T18:07:40.916Z,22.60
2023-05-05T18:10:08.360Z,22.61
2023-05-05T18:12:36.417Z,22.37
2023-05-05T18:15:04.509Z,22.65
2023-05-05T18:17:31.721Z,22.27
2023-05-05T18:19:59.067Z,21.87
2023-05-05T18:22:26.841Z,22.21
2023-05-05T18:24:59.927Z,22.12
2023-05-05T18:27:32.485Z,21.55
2023-05-05T18:29:59.402Z,21.58
2023-05-05T18:32:26.129Z,21.40
2023-05-05T18:34:52.811Z,21.60
2023-05-05T18:37:20.344Z,21.47
2023-05-05T18:39:46.956Z,21.78
2023-05-05T18:42:13.807Z,22.01
2023-05-05T18:44:42.497Z,21.98
2023-05-05T18:47:09.225Z,22.02
2023-05-05T18:49:35.972Z,21.60
2023-05-05T18:52:02.851Z,21.72
2023-05-05T18:54:30.436Z,21.66
2023-05-05T18:56:57.379Z,21.51
2023-05-05T18:59:24.385Z,21.88
2023-05-05T19:01:51.184Z,21.98
2023-05-05T19:04:30.710Z,22.00
2023-05-05T19:07:00.194Z,21.66
2023-05-05T19:09:28.153Z,21.56
2023-05-05T19:11:54.987Z,21.31
2023-05-05T19:14:22.790Z,21.16
2023-05-05T19:16:49.474Z,21.41
2023-05-05T19:19:17.686Z,21.14
2023-05-05T19:21:44.453Z,21.26
2023-05-05T19:24:11.955Z,21.03
2023-05-05T19:26:38.613Z,21.18
2023-05-05T19:29:05.591Z,20.97
2023-05-05T19:31:32.248Z,21.35
2023-05-05T19:34:04.518Z,21.24
2023-05-05T19:36:32.094Z,21.46
2023-05-05T19:39:04.928Z,21.41
2023-05-05T19:41:31.997Z,21.27
2023-05-05T19:44:00.222Z,21.73
2023-05-05T19:46:26.916Z,21.72
2023-05-05T19:48:53.767Z,21.55
2023-05-05T19:51:21.316Z,21.14
2023-05-05T19:53:48.411Z,21.18
2023-05-05T19:56:14.987Z,20.73
2023-05-05T19:59:01.314Z,20.64
2023-05-05T20:01:30.720Z,20.59
2023-05-05T20:03:57.985Z,20.42
2023-05-05T20:06:27.201Z,20.24
2023-05-05T20:08:55.264Z,20.33
2023-05-05T20:11:22.987Z,20.08
2023-05-05T20:13:51.768Z,19.88
2023-05-05T20:16:19.327Z,19.84
2023-05-05T20:18:46.984Z,19.69
2023-05-05T20:21:16.582Z,19.74
2023-05-05T20:23:44.369Z,19.79
2023-05-05T20:26:12.720Z,19.70
2023-05-05T20:28:42.536Z,19.65
2023-05-05T20:31:10.866Z,19.45
2023-05-05T20:33:37.559Z,19.55
2023-05-05T20:36:04.920Z,19.43
2023-05-05T20:38:31.496Z,19.29
2023-05-05T20:40:58.533Z,19.64
2023-05-05T20:43:25.995Z,19.24
2023-05-05T20:45:53.072Z,19.03
2023-05-05T20:48:19.609Z,19.44
2023-05-05T20:50:47.302Z,19.29
2023-05-05T20:53:15.058Z,19.25
2023-05-05T20:55:42.129Z,19.16
2023-05-05T20:58:09.444Z,19.21
2023-05-05T21:00:36.278Z,19.45
2023-05-05T21:03:04.211Z,19.90
2023-05-05T21:05:33.856Z,19.69
2023-05-05T21:08:01.432Z,19.72
2023-05-05T21:10:33.056Z,19.47
2023-05-05T21:13:01.923Z,19.67
2023-05-05T21:15:29.417Z,19.90
2023-05-05T21:17:57.042Z,19.61
2023-05-05T21:20:23.897Z,19.74
2023-05-05T21:22:50.790Z,19.79
2023-05-05T21:25:20.196Z,19.92
2023-05-05T21:27:48.158Z,19.33
2023-05-05T21:30:16.608Z,19.99
2023-05-05T21:32:43.998Z,20.35
2023-05-05T21:35:10.890Z,20.00
2023-05-05T21:37:38.943Z,20.23
2023-05-05T21:40:09.324Z,19.80
2023-05-05T21:42:36.304Z,19.88
2023-05-05T21:45:03.091Z,19.74
2023-05-05T21:47:29.936Z,20.20
2023-05-05T21:49:58.747Z,20.34
2023-05-05T21:52:26.011Z,20.30
2023-05-05T21:54:52.719Z,20.04
2023-05-05T21:57:19.390Z,20.12
2023-05-05T21:59:47.251Z,20.17
2023-05-05T22:02:13.958Z,19.88
2023-05-05T22:04:42.627Z,19.76
2023-05-05T22:07:09.388Z,19.81
2023-05-05T22:09:36.083Z,19.82
2023-05-05T22:12:03.026Z,19.38
2023-05-05T22:14:29.797Z,19.64
2023-05-05T22:16:56.643Z,19.46
2023-05-05T22:19:23.457Z,19.66
2023-05-05T22:21:50.067Z,19.44
2023-05-05T22:24:16.653Z,19.32
2023-05-05T22:26:43.560Z,19.49
2023-05-05T22:29:11.067Z,19.41
2023-05-05T22:31:37.857Z,19.55
2023-05-05T22:34:04.760Z,19.24
2023-05-05T22:36:31.540Z,19.41
2023-05-05T22:38:58.265Z,19.21
2023-05-05T22:41:24.924Z,19.35
2023-05-05T22:43:51.502Z,19.27
2023-05-05T22:46:18.120Z,19.20
2023-05-05T22:48:44.772Z,19.14
2023-05-05T22:51:11.393Z,18.88
2023-05-05T22:53:41.183Z,19.15
2023-05-05T22:56:08.118Z,18.95
2023-05-05T22:58:34.785Z,18.95
2023-05-05T23:01:01.704Z,18.75
2023-05-05T23:03:29.152Z,19.03
2023-05-05T23:05:56.162Z,19.09
2023-05-05T23:08:24.292Z,18.98
2023-05-05T23:10:52.146Z,19.21
2023-05-05T23:13:19.058Z,19.15
2023-05-05T23:15:46.047Z,19.23
2023-05-05T23:18:12.884Z,19.49
2023-05-05T23:20:39.740Z,19.54
2023-05-05T23:23:06.356Z,19.57
2023-05-05T23:25:32.846Z,19.50
2023-05-05T23:27:59.996Z,19.39
2023-05-05T23:30:27.296Z,19.58
2023-05-05T23:32:54.768Z,19.40
2023-05-05T23:35:21.607Z,19.59
2023-05-05T23:37:48.672Z,18.74
2023-05-05T23:40:15.279Z,18.46
2023-05-05T23:42:41.870Z,18.42
2023-05-05T23:45:11.348Z,18.37
2023-05-05T23:47:38.503Z,18.45
2023-05-05T23:50:05.618Z,18.16
2023-05-05T23:52:32.367Z,18.66
2023-05-05T23:54:58.954Z,18.71
2023-05-05T23:57:25.754Z,18.21
2023-05-05T23:59:52.416Z,18.38
